createdAt,value
2022-09-05T06:31:29.805Z,4.00
2022-09-05T06:32:24.625Z,0.00
2022-09-05T06:33:23.632Z,0.00
2022-09-05T06:34:33.011Z,0.00
2022-09-05T06:35:24.607Z,4.00
2022-09-05T06:36:23.583Z,4.00
2022-09-05T06:37:23.610Z,0.00
2022-09-05T06:38:23.569Z,0.00
2022-09-05T06:39:23.626Z,0.00
2022-09-05T06:40:23.520Z,4.00
2022-09-05T06:41:23.521Z,4.00
2022-09-05T06:42:42.606Z,4.00
2022-09-05T06:43:24.720Z,4.00
2022-09-05T06:44:23.940Z,4.00
2022-09-05T06:45:28.414Z,4.00
2022-09-05T06:46:54.671Z,4.00
2022-09-05T06:47:33.881Z,4.00
2022-09-05T06:48:44.767Z,4.00
2022-09-05T06:49:30.500Z,4.00
2022-09-05T06:50:27.112Z,4.00
2022-09-05T06:51:23.558Z,4.00
2022-09-05T06:52:28.864Z,4.00
2022-09-05T06:53:24.600Z,0.00
2022-09-05T07:54:39.418Z,0.00
2022-09-05T07:56:49.005Z,76.00
2022-09-05T07:56:58.565Z,0.00
2022-09-05T07:56:58.566Z,0.00
2022-09-05T07:57:03.723Z,0.00
2022-09-05T07:57:06.158Z,0.00
2022-09-05T07:57:30.724Z,72.00
2022-09-05T07:58:22.928Z,4.00
2022-09-05T07:59:21.895Z,4.00
2022-09-05T08:00:26.696Z,108.00
2022-09-05T08:01:23.000Z,108.00
2022-09-05T08:02:21.916Z,84.00
2022-09-05T08:03:21.850Z,80.00
2022-09-05T08:04:21.846Z,92.00
2022-09-05T08:05:26.510Z,96.00
2022-09-05T08:06:45.025Z,96.00
2022-09-05T08:07:48.903Z,100.00
2022-09-05T08:08:23.152Z,104.00
2022-09-05T08:10:07.063Z,108.00
2022-09-05T08:10:35.607Z,112.00
2022-09-05T08:11:26.243Z,116.00
2022-09-05T08:12:27.725Z,116.00
2022-09-05T08:13:27.215Z,116.00
2022-09-05T08:14:45.447Z,124.00
2022-09-05T08:15:23.884Z,124.00
2022-09-05T08:16:21.790Z,136.00
2022-09-05T08:17:29.893Z,0.00
2022-09-05T08:18:22.856Z,0.00
2022-09-05T08:19:22.028Z,0.00
2022-09-05T08:20:21.664Z,0.00
2022-09-05T08:21:22.406Z,0.00
2022-09-05T08:22:23.883Z,0.00
2022-09-05T08:23:21.919Z,0.00
2022-09-05T08:24:21.793Z,0.00
2022-09-05T08:25:21.993Z,0.00
2022-09-05T08:26:21.759Z,0.00
2022-09-05T08:27:21.596Z,0.00
2022-09-05T08:28:21.634Z,0.00
2022-09-05T08:29:21.577Z,0.00
2022-09-05T08:30:24.567Z,0.00
2022-09-05T08:31:22.594Z,0.00
2022-09-05T08:32:21.537Z,0.00
2022-09-05T08:33:21.525Z,0.00
2022-09-05T08:34:24.821Z,0.00
2022-09-05T08:35:23.387Z,0.00
2022-09-05T08:36:21.730Z,0.00
2022-09-05T08:37:22.015Z,0.00
2022-09-05T08:38:21.736Z,0.00
2022-09-05T08:39:21.693Z,0.00
2022-09-05T08:40:22.418Z,0.00
2022-09-05T08:41:23.750Z,0.00
2022-09-05T08:42:22.749Z,0.00
2022-09-05T08:43:58.229Z,0.00
2022-09-05T08:46:36.289Z,4.00
2022-09-05T08:46:42.371Z,0.00
2022-09-05T08:46:43.161Z,0.00
2022-09-05T08:47:22.680Z,0.00
2022-09-05T08:48:22.039Z,0.00
2022-09-05T08:49:32.727Z,0.00
2022-09-05T08:50:27.161Z,0.00
2022-09-05T08:51:22.383Z,0.00
2022-09-05T08:52:21.330Z,0.00
2022-09-05T08:53:45.662Z,4.00
2022-09-05T08:54:22.538Z,0.00
2022-09-05T08:55:21.468Z,0.00
2022-09-05T08:56:21.501Z,0.00
2022-09-05T08:57:21.462Z,0.00
2022-09-05T08:58:21.722Z,0.00
2022-09-05T08:59:32.242Z,0.00
2022-09-05T09:00:24.893Z,0.00
2022-09-05T09:01:23.473Z,0.00
2022-09-05T09:02:46.829Z,0.00
2022-09-05T09:03:22.677Z,0.00
2022-09-05T09:04:38.621Z,4.00
2022-09-05T09:05:22.880Z,0.00
2022-09-05T09:06:21.684Z,0.00
2022-09-05T09:07:51.423Z,0.00
2022-09-05T09:08:22.611Z,0.00
2022-09-05T09:09:21.633Z,0.00
2022-09-05T09:10:22.801Z,0.00
2022-09-05T09:11:21.308Z,0.00
2022-09-05T09:12:21.506Z,0.00
2022-09-05T09:13:21.912Z,0.00
2022-09-05T09:14:29.564Z,0.00
2022-09-05T09:15:22.332Z,0.00
2022-09-05T09:16:21.407Z,0.00
2022-09-05T09:17:21.896Z,0.00
2022-09-05T09:18:21.393Z,0.00
2022-09-05T09:19:29.332Z,0.00
2022-09-05T09:20:22.877Z,0.00
2022-09-05T09:21:21.250Z,0.00
2022-09-05T09:22:21.921Z,0.00
2022-09-05T09:23:32.402Z,0.00
2022-09-05T09:24:22.369Z,0.00
2022-09-05T09:25:25.225Z,0.00
2022-09-05T09:26:24.504Z,0.00
2022-09-05T09:27:31.371Z,0.00
2022-09-05T09:28:49.595Z,0.00
2022-09-05T09:29:22.524Z,0.00
2022-09-05T09:30:21.297Z,0.00
2022-09-05T09:31:21.121Z,0.00
2022-09-05T09:32:20.923Z,0.00
2022-09-05T09:33:21.155Z,0.00
2022-09-05T09:34:22.091Z,4.00
2022-09-05T09:35:21.085Z,4.00
2022-09-05T09:36:21.260Z,0.00
2022-09-05T09:37:21.822Z,0.00
2022-09-05T09:38:22.179Z,0.00
2022-09-05T09:39:38.603Z,0.00
2022-09-05T09:40:22.102Z,0.00
2022-09-05T09:41:20.828Z,0.00
2022-09-05T09:42:33.101Z,0.00
2022-09-05T09:43:21.803Z,0.00
2022-09-05T09:44:20.765Z,0.00
2022-09-05T09:45:22.714Z,0.00
2022-09-05T09:46:21.771Z,0.00
2022-09-05T09:47:20.724Z,0.00
2022-09-05T09:48:20.830Z,0.00
2022-09-05T09:49:23.253Z,0.00
2022-09-05T09:50:20.919Z,0.00
2022-09-05T09:51:20.680Z,0.00
2022-09-05T09:52:21.430Z,0.00
2022-09-05T09:53:20.691Z,4.00
2022-09-05T09:54:20.929Z,0.00
2022-09-05T09:55:21.217Z,0.00
2022-09-05T09:56:20.808Z,0.00
2022-09-05T09:57:20.837Z,0.00
2022-09-05T09:58:22.450Z,0.00
2022-09-05T09:59:20.619Z,0.00
2022-09-05T10:00:20.871Z,0.00
2022-09-05T10:01:36.017Z,0.00
2022-09-05T10:04:30.888Z,0.00
2022-09-05T10:07:17.044Z,0.00
2022-09-05T10:10:34.544Z,0.00
2022-09-05T10:10:35.058Z,0.00
2022-09-05T10:10:45.885Z,0.00
2022-09-05T10:10:48.845Z,0.00
2022-09-05T10:10:49.407Z,0.00
2022-09-05T10:10:51.343Z,0.00
2022-09-05T10:10:58.712Z,0.00
2022-09-05T10:12:22.480Z,0.00
2022-09-05T10:13:20.682Z,0.00
2022-09-05T10:14:36.738Z,0.00
2022-09-05T10:15:31.687Z,0.00
2022-09-05T10:16:22.426Z,0.00
2022-09-05T10:17:20.700Z,0.00
2022-09-05T10:18:24.366Z,0.00
2022-09-05T10:20:06.308Z,0.00
2022-09-05T10:20:22.543Z,4.00
2022-09-05T10:21:20.600Z,0.00
2022-09-05T10:22:37.392Z,0.00
2022-09-05T10:23:21.470Z,0.00
2022-09-05T10:24:20.321Z,0.00
2022-09-05T10:25:20.341Z,0.00
2022-09-05T10:26:20.460Z,0.00
2022-09-05T10:27:20.300Z,0.00
2022-09-05T10:28:21.410Z,0.00
2022-09-05T10:29:34.928Z,0.00
2022-09-05T10:30:25.283Z,0.00
2022-09-05T10:34:39.500Z,0.00
2022-09-05T10:35:08.190Z,0.00
2022-09-05T10:35:11.086Z,0.00
2022-09-05T10:35:17.980Z,0.00
2022-09-05T10:35:23.594Z,0.00
2022-09-05T10:36:20.408Z,0.00
2022-09-05T10:37:20.389Z,0.00
2022-09-05T10:38:20.170Z,0.00
2022-09-05T10:39:21.076Z,0.00
2022-09-05T10:40:20.327Z,0.00
2022-09-05T10:41:22.922Z,0.00
2022-09-05T10:42:20.101Z,4.00
2022-09-05T10:43:20.304Z,0.00
2022-09-05T10:44:20.895Z,0.00
2022-09-05T10:45:20.224Z,0.00
2022-09-05T10:46:47.002Z,0.00
2022-09-05T10:47:21.416Z,0.00
2022-09-05T10:48:20.267Z,0.00
2022-09-05T10:49:20.054Z,0.00
2022-09-05T10:50:20.913Z,0.00
2022-09-05T10:51:27.869Z,0.00
2022-09-05T10:52:21.105Z,0.00
2022-09-05T10:53:20.344Z,4.00
2022-09-05T10:54:20.926Z,0.00
2022-09-05T10:55:19.981Z,0.00
2022-09-05T10:56:19.970Z,0.00
2022-09-05T10:57:20.927Z,0.00
2022-09-05T10:58:29.061Z,0.00
2022-09-05T11:02:17.201Z,4.00
2022-09-05T11:02:21.333Z,0.00
2022-09-05T11:02:27.587Z,0.00
2022-09-05T11:02:33.440Z,0.00
2022-09-05T11:03:22.926Z,0.00
2022-09-05T11:04:20.990Z,0.00
2022-09-05T11:05:20.122Z,0.00
2022-09-05T11:06:20.975Z,0.00
2022-09-05T11:07:27.928Z,0.00
2022-09-05T11:08:21.982Z,0.00
2022-09-05T11:09:20.159Z,0.00
2022-09-05T11:10:20.053Z,0.00
2022-09-05T11:11:28.246Z,0.00
2022-09-05T11:12:20.978Z,0.00
2022-09-05T11:13:19.879Z,0.00
2022-09-05T11:14:26.632Z,0.00
2022-09-05T11:15:20.799Z,0.00
2022-09-05T11:16:20.426Z,0.00
2022-09-05T11:17:19.975Z,0.00
2022-09-05T11:18:19.858Z,0.00
2022-09-05T11:19:19.828Z,0.00
2022-09-05T11:20:30.304Z,0.00
2022-09-05T11:21:20.887Z,0.00
2022-09-05T11:22:22.516Z,0.00
2022-09-05T11:23:19.736Z,0.00
2022-09-05T11:24:23.074Z,0.00
2022-09-05T11:25:39.724Z,0.00
2022-09-05T11:26:20.634Z,0.00
2022-09-05T11:27:24.603Z,0.00
2022-09-05T11:28:20.597Z,0.00
2022-09-05T11:29:19.573Z,0.00
2022-09-05T11:30:29.836Z,0.00
2022-09-05T11:31:20.802Z,0.00
2022-09-05T11:38:26.864Z,0.00
2022-09-05T11:39:47.195Z,0.00
2022-09-05T11:39:51.297Z,0.00
2022-09-05T11:39:54.773Z,0.00
2022-09-05T11:39:57.725Z,0.00
2022-09-05T11:39:58.553Z,0.00
2022-09-05T11:40:10.270Z,0.00
2022-09-05T11:40:10.552Z,0.00
2022-09-05T11:40:32.903Z,0.00
2022-09-05T11:41:21.139Z,0.00
2022-09-05T11:42:20.404Z,0.00
2022-09-05T11:43:19.588Z,0.00
2022-09-05T11:44:26.172Z,0.00
2022-09-05T11:45:20.602Z,0.00
2022-09-05T11:46:19.599Z,0.00
2022-09-05T11:47:28.291Z,0.00
2022-09-05T11:48:20.585Z,0.00
2022-09-05T11:49:19.547Z,0.00
2022-09-05T11:50:20.409Z,0.00
2022-09-05T11:51:19.670Z,0.00
2022-09-05T11:52:20.510Z,0.00
2022-09-05T11:53:19.493Z,0.00
2022-09-05T11:54:19.510Z,0.00
2022-09-05T11:55:20.898Z,0.00
2022-09-05T11:56:19.473Z,0.00
2022-09-05T11:57:33.556Z,0.00
2022-09-05T11:58:45.052Z,0.00
2022-09-05T11:59:33.802Z,0.00
2022-09-05T12:00:33.745Z,0.00
2022-09-05T12:01:43.259Z,0.00
2022-09-05T12:02:23.267Z,0.00
2022-09-05T12:03:44.423Z,0.00
2022-09-05T12:04:20.484Z,0.00
2022-09-05T12:05:47.417Z,0.00
2022-09-05T12:06:20.268Z,0.00
2022-09-05T12:07:30.552Z,0.00
2022-09-05T12:08:20.199Z,0.00
2022-09-05T12:09:23.588Z,0.00
2022-09-05T12:10:46.158Z,0.00
2022-09-05T12:11:20.311Z,0.00
2022-09-05T12:12:38.882Z,0.00
2022-09-05T12:13:24.475Z,0.00
2022-09-05T12:14:21.228Z,0.00
2022-09-05T12:15:20.242Z,0.00
2022-09-05T12:16:19.321Z,0.00
2022-09-05T12:17:34.892Z,0.00
2022-09-05T12:18:21.592Z,0.00
2022-09-05T12:19:20.168Z,0.00
2022-09-05T12:20:22.197Z,0.00
2022-09-05T12:21:19.836Z,0.00
2022-09-05T12:22:23.641Z,0.00
2022-09-05T12:23:49.361Z,0.00
2022-09-05T12:25:15.745Z,0.00
2022-09-05T12:27:26.257Z,0.00
2022-09-05T12:27:38.516Z,0.00
2022-09-05T12:29:26.281Z,0.00
2022-09-05T12:29:34.976Z,0.00
2022-09-05T12:30:20.089Z,0.00
2022-09-05T12:33:32.719Z,0.00
2022-09-05T12:33:56.628Z,0.00
2022-09-05T12:36:03.950Z,0.00
2022-09-05T12:36:05.167Z,0.00
2022-09-05T12:40:53.899Z,0.00
2022-09-05T12:40:54.086Z,0.00
2022-09-05T12:40:54.588Z,0.00
2022-09-05T12:41:34.233Z,0.00
2022-09-05T12:41:38.506Z,0.00
2022-09-05T12:41:43.194Z,0.00
2022-09-05T12:42:10.054Z,0.00
2022-09-05T12:42:10.191Z,0.00
2022-09-05T12:42:26.015Z,0.00
2022-09-05T12:44:38.635Z,0.00
2022-09-05T12:44:45.477Z,0.00
2022-09-05T12:45:20.131Z,0.00
2022-09-05T12:46:23.806Z,0.00
2022-09-05T12:47:20.422Z,0.00
2022-09-05T12:48:19.055Z,0.00
2022-09-05T12:49:18.884Z,0.00
2022-09-05T12:50:18.904Z,0.00
2022-09-05T12:51:47.030Z,0.00
2022-09-05T12:52:19.859Z,0.00
2022-09-05T12:53:18.849Z,0.00
2022-09-05T12:54:24.795Z,0.00
2022-09-05T12:55:19.814Z,0.00
2022-09-05T12:58:30.072Z,0.00
2022-09-05T13:02:54.946Z,0.00
2022-09-05T13:02:56.288Z,0.00
2022-09-05T13:02:58.903Z,0.00
2022-09-05T13:03:01.751Z,0.00
2022-09-05T13:03:04.851Z,0.00
2022-09-05T13:03:09.277Z,0.00
2022-09-05T13:03:28.361Z,0.00
2022-09-05T13:04:23.772Z,0.00
2022-09-05T13:05:20.315Z,0.00
2022-09-05T13:06:24.643Z,0.00
2022-09-05T13:07:19.711Z,0.00
2022-09-05T13:08:18.687Z,0.00
2022-09-05T13:09:18.667Z,0.00
2022-09-05T13:11:30.231Z,0.00
2022-09-05T13:14:47.524Z,0.00
2022-09-05T13:14:52.984Z,0.00
2022-09-05T13:14:54.320Z,0.00
2022-09-05T13:14:57.342Z,0.00
2022-09-05T13:15:23.730Z,0.00
2022-09-05T13:16:22.894Z,0.00
2022-09-05T13:17:19.712Z,0.00
2022-09-05T13:18:18.553Z,0.00
2022-09-05T13:19:18.551Z,0.00
2022-09-05T13:20:18.534Z,0.00
2022-09-05T13:21:23.228Z,0.00
2022-09-05T13:22:19.321Z,0.00
2022-09-05T13:23:18.477Z,0.00
2022-09-05T13:24:19.390Z,0.00
2022-09-05T13:25:18.497Z,0.00
2022-09-05T13:26:18.480Z,0.00
2022-09-05T13:27:18.482Z,0.00
2022-09-05T13:28:18.482Z,0.00
2022-09-05T13:29:18.591Z,0.00
2022-09-05T13:33:16.188Z,0.00
2022-09-05T13:37:43.170Z,0.00
2022-09-05T13:37:56.620Z,0.00
2022-09-05T13:38:04.295Z,0.00
2022-09-05T13:38:06.461Z,0.00
2022-09-05T13:38:08.053Z,0.00
2022-09-05T13:38:15.172Z,0.00
2022-09-05T13:38:19.875Z,0.00
2022-09-05T13:38:48.935Z,0.00
2022-09-05T13:39:19.228Z,0.00
2022-09-05T13:40:18.671Z,0.00
2022-09-05T13:41:26.996Z,0.00
2022-09-05T13:42:19.294Z,0.00
2022-09-05T13:43:18.317Z,0.00
2022-09-05T13:44:26.988Z,0.00
2022-09-05T13:45:19.261Z,0.00
2022-09-05T13:46:18.336Z,0.00
2022-09-05T13:47:29.995Z,0.00
2022-09-05T13:48:19.241Z,0.00
2022-09-05T13:49:28.770Z,0.00
2022-09-05T13:50:19.234Z,0.00
2022-09-05T13:51:18.069Z,0.00
2022-09-05T13:52:18.036Z,0.00
2022-09-05T13:53:18.196Z,0.00
2022-09-05T13:54:18.180Z,0.00
2022-09-05T13:55:18.164Z,0.00
2022-09-05T13:56:18.171Z,0.00
2022-09-05T13:57:31.433Z,0.00
2022-09-05T13:58:19.146Z,0.00
2022-09-05T13:59:18.108Z,0.00
2022-09-05T14:00:27.610Z,0.00
2022-09-05T14:01:19.210Z,0.00
2022-09-05T14:02:25.846Z,0.00
2022-09-05T14:03:38.645Z,0.00
2022-09-05T14:05:05.158Z,0.00
2022-09-05T14:05:20.801Z,0.00
2022-09-05T14:06:46.439Z,0.00
2022-09-05T14:08:19.020Z,0.00
2022-09-05T14:10:18.821Z,0.00
2022-09-05T14:11:17.844Z,0.00
2022-09-05T14:12:17.781Z,0.00
2022-09-05T14:13:18.003Z,0.00
2022-09-05T14:15:08.439Z,0.00
2022-09-05T14:15:18.948Z,0.00
2022-09-05T14:16:19.045Z,0.00
2022-09-05T14:18:21.607Z,0.00
2022-09-05T14:19:17.708Z,0.00
2022-09-05T14:20:17.736Z,0.00
2022-09-05T14:21:18.147Z,0.00
2022-09-05T14:22:22.142Z,0.00
2022-09-05T14:23:17.830Z,0.00
2022-09-05T14:24:27.688Z,0.00
2022-09-05T14:25:18.837Z,0.00
2022-09-05T14:26:17.845Z,0.00
2022-09-05T14:27:17.936Z,0.00
2022-09-05T14:28:18.803Z,0.00
2022-09-05T14:29:17.815Z,0.00
2022-09-05T14:31:33.175Z,0.00
2022-09-05T14:34:30.938Z,0.00
2022-09-05T14:37:38.731Z,0.00
2022-09-05T14:37:41.697Z,0.00
2022-09-05T14:37:51.083Z,0.00
2022-09-05T14:37:52.529Z,0.00
2022-09-05T14:37:55.737Z,0.00
2022-09-05T14:38:00.735Z,0.00
2022-09-05T14:38:19.483Z,0.00
2022-09-05T14:39:17.560Z,0.00
2022-09-05T14:40:26.501Z,0.00
2022-09-05T14:41:18.636Z,0.00
2022-09-05T14:42:17.628Z,0.00
2022-09-05T14:43:26.895Z,0.00
2022-09-05T14:44:18.765Z,0.00
2022-09-05T14:45:17.615Z,0.00
2022-09-05T14:46:17.831Z,0.00
2022-09-05T14:47:32.361Z,0.00
2022-09-05T14:48:18.560Z,0.00
2022-09-05T14:49:18.272Z,0.00
2022-09-05T14:50:20.770Z,0.00
2022-09-05T14:51:25.869Z,0.00
2022-09-05T14:52:18.545Z,0.00
2022-09-05T14:57:23.153Z,0.00
2022-09-05T14:59:32.640Z,0.00
2022-09-05T15:02:43.609Z,0.00
2022-09-05T15:02:43.733Z,0.00
2022-09-05T15:02:48.386Z,0.00
2022-09-05T15:02:51.202Z,0.00
2022-09-05T15:02:52.079Z,0.00
2022-09-05T15:03:19.239Z,0.00
2022-09-05T15:05:18.209Z,0.00
2022-09-05T15:06:17.906Z,0.00
2022-09-05T15:07:17.508Z,0.00
2022-09-05T15:08:30.539Z,0.00
2022-09-05T15:12:18.122Z,0.00
2022-09-05T15:12:18.698Z,0.00
2022-09-05T15:12:22.904Z,0.00
2022-09-05T15:12:33.045Z,0.00
2022-09-05T15:13:18.338Z,0.00
2022-09-05T15:14:17.269Z,0.00
2022-09-05T15:15:17.269Z,0.00
2022-09-05T15:16:17.115Z,0.00
2022-09-05T15:17:17.250Z,0.00
2022-09-05T15:18:17.405Z,0.00
2022-09-05T15:19:17.229Z,0.00
2022-09-05T15:20:17.222Z,0.00
2022-09-05T15:21:17.223Z,0.00
2022-09-05T15:22:18.197Z,0.00
2022-09-05T15:23:18.332Z,0.00
2022-09-05T15:24:18.182Z,0.00
2022-09-05T15:25:17.800Z,0.00
2022-09-05T15:26:17.149Z,0.00
2022-09-05T15:27:18.148Z,0.00
2022-09-05T15:28:17.127Z,0.00
2022-09-05T15:29:17.262Z,0.00
2022-09-05T15:30:17.119Z,0.00
2022-09-05T15:31:17.170Z,0.00
2022-09-05T15:32:17.080Z,0.00
2022-09-05T15:33:17.066Z,0.00
2022-09-05T15:34:17.068Z,0.00
2022-09-05T15:35:17.028Z,0.00
2022-09-05T15:36:17.052Z,0.00
2022-09-05T15:37:22.412Z,0.00
2022-09-05T15:38:18.030Z,0.00
2022-09-05T15:39:17.062Z,0.00
2022-09-05T15:40:22.840Z,0.00
2022-09-05T15:41:19.166Z,0.00
2022-09-05T15:42:16.979Z,0.00
2022-09-05T15:43:16.971Z,0.00
2022-09-05T15:44:16.958Z,0.00
2022-09-05T15:45:16.950Z,0.00
2022-09-05T15:46:17.021Z,0.00
2022-09-05T15:47:16.957Z,0.00
2022-09-05T15:48:16.922Z,0.00
2022-09-05T15:49:16.907Z,0.00
2022-09-05T15:50:18.990Z,0.00
2022-09-05T15:51:17.710Z,0.00
2022-09-05T15:52:16.890Z,0.00
2022-09-05T15:53:16.973Z,0.00
2022-09-05T15:54:21.768Z,0.00
2022-09-05T15:55:17.836Z,0.00
2022-09-05T15:56:16.834Z,0.00
2022-09-05T15:57:17.781Z,0.00
2022-09-05T15:58:16.784Z,0.00
2022-09-05T15:59:16.905Z,0.00
2022-09-05T16:00:16.576Z,0.00
2022-09-05T16:01:30.294Z,0.00
2022-09-05T16:02:17.797Z,0.00
2022-09-05T16:04:01.208Z,0.00
2022-09-05T16:08:10.630Z,0.00
2022-09-05T16:10:31.824Z,0.00
2022-09-05T16:10:33.924Z,0.00
2022-09-05T16:10:36.109Z,0.00
2022-09-05T16:10:37.382Z,0.00
2022-09-05T16:10:43.606Z,0.00
2022-09-05T16:10:46.270Z,0.00
2022-09-05T16:11:55.466Z,0.00
2022-09-05T16:12:19.599Z,0.00
2022-09-05T16:13:16.650Z,0.00
2022-09-05T16:14:16.621Z,0.00
2022-09-05T16:15:58.531Z,0.00
2022-09-05T16:19:00.152Z,0.00
2022-09-05T16:23:12.037Z,0.00
2022-09-05T16:23:18.641Z,0.00
2022-09-05T16:23:19.109Z,0.00
2022-09-05T16:23:24.617Z,0.00
2022-09-05T16:23:25.481Z,0.00
2022-09-05T16:23:26.368Z,0.00
2022-09-05T16:23:39.566Z,0.00
2022-09-05T16:24:17.590Z,0.00
2022-09-05T16:25:17.550Z,0.00
2022-09-05T16:26:24.764Z,0.00
2022-09-05T16:27:17.482Z,0.00
2022-09-05T16:28:16.638Z,0.00
2022-09-05T16:29:16.470Z,0.00
2022-09-05T16:30:16.596Z,0.00
2022-09-05T16:31:16.681Z,0.00
2022-09-05T16:32:16.472Z,0.00
2022-09-05T16:33:16.511Z,0.00
2022-09-05T16:34:16.450Z,0.00
2022-09-05T16:35:16.251Z,0.00
2022-09-05T16:36:16.547Z,0.00
2022-09-05T16:37:16.178Z,0.00
2022-09-05T16:38:24.117Z,0.00
2022-09-05T16:39:17.190Z,0.00
